sensor_id;sensor_type;location;lat;lon;timestamp;P1;durP1;ratioP1;P2;durP2;ratioP2
15990;SDS011;8100;50.994;4.538;2024-02-04T00:02:29;6.28;;;2.97;;
15990;SDS011;8100;50.994;4.538;2024-02-04T00:05:16;6.30;;;2.85;;
15990;SDS011;8100;50.994;4.538;2024-02-04T00:08:04;5.13;;;3.00;;
15990;SDS011;8100;50.994;4.538;2024-02-04T00:10:53;4.93;;;2.80;;
15990;SDS011;8100;50.994;4.538;2024-02-04T00:13:40;7.18;;;3.13;;
15990;SDS011;8100;50.994;4.538;2024-02-04T00:16:27;5.10;;;3.15;;
15990;SDS011;8100;50.994;4.538;2024-02-04T00:19:14;4.72;;;2.72;;
15990;SDS011;8100;50.994;4.538;2024-02-04T00:22:01;5.40;;;2.88;;
15990;SDS011;8100;50.994;4.538;2024-02-04T00:24:48;7.38;;;3.20;;
15990;SDS011;8100;50.994;4.538;2024-02-04T00:27:37;4.45;;;2.83;;
15990;SDS011;8100;50.994;4.538;2024-02-04T00:30:24;4.72;;;2.72;;
15990;SDS011;8100;50.994;4.538;2024-02-04T00:33:11;5.72;;;2.70;;
15990;SDS011;8100;50.994;4.538;2024-02-04T00:35:58;5.70;;;2.88;;
15990;SDS011;8100;50.994;4.538;2024-02-04T00:38:45;9.05;;;2.80;;
15990;SDS011;8100;50.994;4.538;2024-02-04T00:41:32;4.15;;;2.50;;
15990;SDS011;8100;50.994;4.538;2024-02-04T00:44:21;3.67;;;2.30;;
15990;SDS011;8100;50.994;4.538;2024-02-04T00:47:08;5.65;;;2.90;;
15990;SDS011;8100;50.994;4.538;2024-02-04T00:49:55;6.03;;;2.65;;
15990;SDS011;8100;50.994;4.538;2024-02-04T00:52:42;8.15;;;3.20;;
15990;SDS011;8100;50.994;4.538;2024-02-04T00:55:29;5.10;;;2.75;;
15990;SDS011;8100;50.994;4.538;2024-02-04T00:58:16;5.75;;;2.83;;
15990;SDS011;8100;50.994;4.538;2024-02-04T01:01:05;6.72;;;3.03;;
15990;SDS011;8100;50.994;4.538;2024-02-04T01:03:52;5.85;;;3.17;;
15990;SDS011;8100;50.994;4.538;2024-02-04T01:06:39;6.22;;;2.85;;
15990;SDS011;8100;50.994;4.538;2024-02-04T01:09:26;3.78;;;3.15;;
15990;SDS011;8100;50.994;4.538;2024-02-04T01:12:13;9.88;;;3.42;;
15990;SDS011;8100;50.994;4.538;2024-02-04T01:15:00;4.10;;;2.75;;
15990;SDS011;8100;50.994;4.538;2024-02-04T01:17:51;4.97;;;2.88;;
15990;SDS011;8100;50.994;4.538;2024-02-04T01:20:38;4.68;;;3.00;;
15990;SDS011;8100;50.994;4.538;2024-02-04T01:23:25;4.07;;;3.00;;
15990;SDS011;8100;50.994;4.538;2024-02-04T01:26:12;4.10;;;2.90;;
15990;SDS011;8100;50.994;4.538;2024-02-04T01:29:00;4.80;;;3.20;;
15990;SDS011;8100;50.994;4.538;2024-02-04T01:31:47;9.23;;;3.15;;
15990;SDS011;8100;50.994;4.538;2024-02-04T01:34:35;4.68;;;3.05;;
15990;SDS011;8100;50.994;4.538;2024-02-04T01:37:22;6.20;;;3.35;;
15990;SDS011;8100;50.994;4.538;2024-02-04T01:40:09;4.95;;;3.03;;
15990;SDS011;8100;50.994;4.538;2024-02-04T01:42:57;6.35;;;2.92;;
15990;SDS011;8100;50.994;4.538;2024-02-04T01:45:44;3.28;;;2.63;;
15990;SDS011;8100;50.994;4.538;2024-02-04T01:48:32;3.92;;;2.90;;
15990;SDS011;8100;50.994;4.538;2024-02-04T01:51:21;5.18;;;3.00;;
15990;SDS011;8100;50.994;4.538;2024-02-04T01:54:08;6.50;;;3.10;;
15990;SDS011;8100;50.994;4.538;2024-02-04T01:56:55;7.18;;;3.35;;
15990;SDS011;8100;50.994;4.538;2024-02-04T01:59:46;5.25;;;2.88;;
15990;SDS011;8100;50.994;4.538;2024-02-04T02:02:38;6.03;;;2.97;;
15990;SDS011;8100;50.994;4.538;2024-02-04T02:05:26;6.22;;;3.42;;
15990;SDS011;8100;50.994;4.538;2024-02-04T02:08:15;6.68;;;3.38;;
15990;SDS011;8100;50.994;4.538;2024-02-04T02:11:03;6.53;;;3.20;;
15990;SDS011;8100;50.994;4.538;2024-02-04T02:13:57;4.95;;;3.50;;
15990;SDS011;8100;50.994;4.538;2024-02-04T02:16:47;7.85;;;3.83;;
15990;SDS011;8100;50.994;4.538;2024-02-04T02:19:37;5.93;;;3.35;;
15990;SDS011;8100;50.994;4.538;2024-02-04T02:22:35;4.47;;;3.15;;
15990;SDS011;8100;50.994;4.538;2024-02-04T02:25:31;4.85;;;3.42;;
15990;SDS011;8100;50.994;4.538;2024-02-04T02:28:20;5.28;;;3.00;;
15990;SDS011;8100;50.994;4.538;2024-02-04T02:31:06;9.07;;;3.90;;
15990;SDS011;8100;50.994;4.538;2024-02-04T02:33:53;7.90;;;3.58;;
15990;SDS011;8100;50.994;4.538;2024-02-04T02:36:42;6.57;;;3.08;;
15990;SDS011;8100;50.994;4.538;2024-02-04T02:39:32;4.82;;;3.67;;
15990;SDS011;8100;50.994;4.538;2024-02-04T02:42:25;7.10;;;3.80;;
15990;SDS011;8100;50.994;4.538;2024-02-04T02:45:13;5.68;;;3.60;;
15990;SDS011;8100;50.994;4.538;2024-02-04T02:48:01;8.52;;;3.85;;
15990;SDS011;8100;50.994;4.538;2024-02-04T02:50:51;7.72;;;3.80;;
15990;SDS011;8100;50.994;4.538;2024-02-04T02:53:39;6.03;;;3.42;;
15990;SDS011;8100;50.994;4.538;2024-02-04T02:56:26;8.90;;;3.58;;
15990;SDS011;8100;50.994;4.538;2024-02-04T02:59:14;6.78;;;3.90;;
15990;SDS011;8100;50.994;4.538;2024-02-04T03:02:01;7.47;;;3.92;;
15990;SDS011;8100;50.994;4.538;2024-02-04T03:04:49;5.97;;;3.10;;
15990;SDS011;8100;50.994;4.538;2024-02-04T03:07:36;5.68;;;3.42;;
15990;SDS011;8100;50.994;4.538;2024-02-04T03:10:22;6.03;;;3.40;;
15990;SDS011;8100;50.994;4.538;2024-02-04T03:13:09;6.18;;;3.53;;
15990;SDS011;8100;50.994;4.538;2024-02-04T03:15:58;8.20;;;3.45;;
15990;SDS011;8100;50.994;4.538;2024-02-04T03:18:45;6.88;;;3.28;;
15990;SDS011;8100;50.994;4.538;2024-02-04T03:21:32;5.53;;;3.45;;
15990;SDS011;8100;50.994;4.538;2024-02-04T03:24:19;7.10;;;3.20;;
15990;SDS011;8100;50.994;4.538;2024-02-04T03:27:06;6.80;;;3.10;;
15990;SDS011;8100;50.994;4.538;2024-02-04T03:29:54;5.47;;;3.22;;
15990;SDS011;8100;50.994;4.538;2024-02-04T03:32:42;7.03;;;3.30;;
15990;SDS011;8100;50.994;4.538;2024-02-04T03:35:29;6.50;;;3.22;;
15990;SDS011;8100;50.994;4.538;2024-02-04T03:38:16;6.60;;;3.33;;
15990;SDS011;8100;50.994;4.538;2024-02-04T03:41:03;7.15;;;3.38;;
15990;SDS011;8100;50.994;4.538;2024-02-04T03:43:50;8.35;;;3.55;;
15990;SDS011;8100;50.994;4.538;2024-02-04T03:46:37;8.88;;;3.03;;
15990;SDS011;8100;50.994;4.538;2024-02-04T03:49:26;7.13;;;3.15;;
15990;SDS011;8100;50.994;4.538;2024-02-04T03:52:13;5.85;;;3.17;;
15990;SDS011;8100;50.994;4.538;2024-02-04T03:55:00;6.38;;;2.83;;
15990;SDS011;8100;50.994;4.538;2024-02-04T03:57:47;4.43;;;2.33;;
15990;SDS011;8100;50.994;4.538;2024-02-04T04:00:34;5.63;;;2.33;;
15990;SDS011;8100;50.994;4.538;2024-02-04T04:03:21;6.78;;;2.50;;
15990;SDS011;8100;50.994;4.538;2024-02-04T04:06:09;4.18;;;2.60;;
15990;SDS011;8100;50.994;4.538;2024-02-04T04:08:56;5.25;;;2.85;;
15990;SDS011;8100;50.994;4.538;2024-02-04T04:11:44;3.40;;;2.28;;
15990;SDS011;8100;50.994;4.538;2024-02-04T04:14:31;4.60;;;2.58;;
15990;SDS011;8100;50.994;4.538;2024-02-04T04:17:18;6.32;;;2.80;;
15990;SDS011;8100;50.994;4.538;2024-02-04T04:20:06;4.35;;;2.70;;
15990;SDS011;8100;50.994;4.538;2024-02-04T04:22:55;6.18;;;2.63;;
15990;SDS011;8100;50.994;4.538;2024-02-04T04:25:42;6.22;;;2.83;;
15990;SDS011;8100;50.994;4.538;2024-02-04T04:28:29;5.22;;;2.80;;
15990;SDS011;8100;50.994;4.538;2024-02-04T04:31:16;5.43;;;2.85;;
15990;SDS011;8100;50.994;4.538;2024-02-04T04:34:03;8.38;;;3.20;;
15990;SDS011;8100;50.994;4.538;2024-02-04T04:36:50;4.05;;;3.13;;
15990;SDS011;8100;50.994;4.538;2024-02-04T04:39:38;3.83;;;2.80;;
15990;SDS011;8100;50.994;4.538;2024-02-04T04:42:25;5.82;;;2.80;;
15990;SDS011;8100;50.994;4.538;2024-02-04T04:45:12;5.93;;;3.55;;
15990;SDS011;8100;50.994;4.538;2024-02-04T04:48:00;4.40;;;2.60;;
15990;SDS011;8100;50.994;4.538;2024-02-04T04:50:47;6.15;;;3.40;;
15990;SDS011;8100;50.994;4.538;2024-02-04T04:53:34;5.30;;;3.03;;
15990;SDS011;8100;50.994;4.538;2024-02-04T04:56:22;4.40;;;2.97;;
15990;SDS011;8100;50.994;4.538;2024-02-04T04:59:09;4.25;;;3.03;;
15990;SDS011;8100;50.994;4.538;2024-02-04T05:01:56;5.60;;;3.15;;
15990;SDS011;8100;50.994;4.538;2024-02-04T05:04:43;5.03;;;2.80;;
15990;SDS011;8100;50.994;4.538;2024-02-04T05:07:30;5.32;;;2.90;;
15990;SDS011;8100;50.994;4.538;2024-02-04T05:10:17;5.88;;;2.63;;
15990;SDS011;8100;50.994;4.538;2024-02-04T05:13:06;6.10;;;2.60;;
15990;SDS011;8100;50.994;4.538;2024-02-04T05:15:53;5.22;;;2.55;;
15990;SDS011;8100;50.994;4.538;2024-02-04T05:18:40;4.45;;;2.70;;
15990;SDS011;8100;50.994;4.538;2024-02-04T05:21:27;5.45;;;2.92;;
15990;SDS011;8100;50.994;4.538;2024-02-04T05:24:14;4.05;;;2.45;;
15990;SDS011;8100;50.994;4.538;2024-02-04T05:27:01;4.55;;;2.55;;
15990;SDS011;8100;50.994;4.538;2024-02-04T05:29:50;4.88;;;2.50;;
15990;SDS011;8100;50.994;4.538;2024-02-04T05:32:37;3.42;;;2.50;;
15990;SDS011;8100;50.994;4.538;2024-02-04T05:35:24;4.68;;;2.55;;
15990;SDS011;8100;50.994;4.538;2024-02-04T05:38:10;3.85;;;2.30;;
15990;SDS011;8100;50.994;4.538;2024-02-04T05:40:57;6.05;;;2.80;;
15990;SDS011;8100;50.994;4.538;2024-02-04T05:43:44;3.92;;;2.90;;
15990;SDS011;8100;50.994;4.538;2024-02-04T05:46:33;3.42;;;2.47;;
15990;SDS011;8100;50.994;4.538;2024-02-04T05:49:20;5.15;;;2.78;;
15990;SDS011;8100;50.994;4.538;2024-02-04T05:52:07;5.53;;;2.78;;
15990;SDS011;8100;50.994;4.538;2024-02-04T05:54:54;4.88;;;2.80;;
15990;SDS011;8100;50.994;4.538;2024-02-04T05:57:41;8.85;;;3.20;;
15990;SDS011;8100;50.994;4.538;2024-02-04T06:00:28;5.10;;;2.92;;
15990;SDS011;8100;50.994;4.538;2024-02-04T06:03:17;7.72;;;3.40;;
15990;SDS011;8100;50.994;4.538;2024-02-04T06:06:04;6.43;;;3.20;;
15990;SDS011;8100;50.994;4.538;2024-02-04T06:08:51;5.90;;;3.38;;
15990;SDS011;8100;50.994;4.538;2024-02-04T06:11:38;8.15;;;3.15;;
15990;SDS011;8100;50.994;4.538;2024-02-04T06:14:25;6.75;;;3.17;;
15990;SDS011;8100;50.994;4.538;2024-02-04T06:17:12;5.18;;;2.78;;
15990;SDS011;8100;50.994;4.538;2024-02-04T06:20:00;6.32;;;3.35;;
15990;SDS011;8100;50.994;4.538;2024-02-04T06:22:47;7.03;;;3.15;;
15990;SDS011;8100;50.994;4.538;2024-02-04T06:25:34;7.28;;;3.30;;
15990;SDS011;8100;50.994;4.538;2024-02-04T06:28:21;6.20;;;3.35;;
15990;SDS011;8100;50.994;4.538;2024-02-04T06:31:08;6.63;;;3.72;;
15990;SDS011;8100;50.994;4.538;2024-02-04T06:33:55;7.88;;;4.10;;
15990;SDS011;8100;50.994;4.538;2024-02-04T06:36:43;6.55;;;3.33;;
15990;SDS011;8100;50.994;4.538;2024-02-04T06:39:31;8.73;;;3.92;;
15990;SDS011;8100;50.994;4.538;2024-02-04T06:42:18;9.68;;;4.50;;
15990;SDS011;8100;50.994;4.538;2024-02-04T06:45:05;6.70;;;4.28;;
15990;SDS011;8100;50.994;4.538;2024-02-04T06:47:52;12.43;;;4.85;;
15990;SDS011;8100;50.994;4.538;2024-02-04T06:50:39;7.43;;;4.57;;
15990;SDS011;8100;50.994;4.538;2024-02-04T06:53:30;9.43;;;4.25;;
15990;SDS011;8100;50.994;4.538;2024-02-04T06:56:17;7.40;;;3.92;;
15990;SDS011;8100;50.994;4.538;2024-02-04T06:59:04;8.75;;;4.28;;
15990;SDS011;8100;50.994;4.538;2024-02-04T07:01:51;7.68;;;4.22;;
15990;SDS011;8100;50.994;4.538;2024-02-04T07:04:38;6.47;;;3.65;;
15990;SDS011;8100;50.994;4.538;2024-02-04T07:07:26;8.13;;;3.67;;
15990;SDS011;8100;50.994;4.538;2024-02-04T07:10:14;7.75;;;3.35;;
15990;SDS011;8100;50.994;4.538;2024-02-04T07:13:01;8.20;;;3.50;;
15990;SDS011;8100;50.994;4.538;2024-02-04T07:15:48;4.97;;;3.00;;
15990;SDS011;8100;50.994;4.538;2024-02-04T07:18:35;4.63;;;3.25;;
15990;SDS011;8100;50.994;4.538;2024-02-04T07:21:22;7.90;;;3.20;;
15990;SDS011;8100;50.994;4.538;2024-02-04T07:24:09;5.07;;;3.10;;
15990;SDS011;8100;50.994;4.538;2024-02-04T07:26:57;6.53;;;3.20;;
15990;SDS011;8100;50.994;4.538;2024-02-04T07:29:44;4.93;;;3.00;;
15990;SDS011;8100;50.994;4.538;2024-02-04T07:32:32;6.18;;;2.95;;
15990;SDS011;8100;50.994;4.538;2024-02-04T07:35:22;6.50;;;2.72;;
15990;SDS011;8100;50.994;4.538;2024-02-04T07:38:09;9.48;;;2.72;;
15990;SDS011;8100;50.994;4.538;2024-02-04T07:40:56;6.07;;;3.05;;
15990;SDS011;8100;50.994;4.538;2024-02-04T07:43:45;4.70;;;3.10;;
15990;SDS011;8100;50.994;4.538;2024-02-04T07:46:33;4.90;;;2.60;;
15990;SDS011;8100;50.994;4.538;2024-02-04T07:49:20;5.05;;;2.25;;
15990;SDS011;8100;50.994;4.538;2024-02-04T07:52:07;6.72;;;2.40;;
15990;SDS011;8100;50.994;4.538;2024-02-04T07:54:54;6.40;;;2.45;;
15990;SDS011;8100;50.994;4.538;2024-02-04T07:57:41;3.20;;;2.25;;
15990;SDS011;8100;50.994;4.538;2024-02-04T08:00:29;4.68;;;2.38;;
15990;SDS011;8100;50.994;4.538;2024-02-04T08:03:16;6.05;;;2.72;;
15990;SDS011;8100;50.994;4.538;2024-02-04T08:06:03;5.13;;;2.47;;
15990;SDS011;8100;50.994;4.538;2024-02-04T08:08:51;6.28;;;2.83;;
15990;SDS011;8100;50.994;4.538;2024-02-04T08:11:38;5.70;;;3.00;;
15990;SDS011;8100;50.994;4.538;2024-02-04T08:14:25;5.45;;;2.70;;
15990;SDS011;8100;50.994;4.538;2024-02-04T08:17:13;6.03;;;3.55;;
15990;SDS011;8100;50.994;4.538;2024-02-04T08:20:00;6.35;;;3.00;;
15990;SDS011;8100;50.994;4.538;2024-02-04T08:22:49;6.03;;;2.80;;
15990;SDS011;8100;50.994;4.538;2024-02-04T08:25:36;5.55;;;3.20;;
15990;SDS011;8100;50.994;4.538;2024-02-04T08:28:23;5.05;;;3.05;;
15990;SDS011;8100;50.994;4.538;2024-02-04T08:31:11;5.70;;;3.03;;
15990;SDS011;8100;50.994;4.538;2024-02-04T08:33:59;6.25;;;3.25;;
15990;SDS011;8100;50.994;4.538;2024-02-04T08:36:47;4.00;;;2.30;;
15990;SDS011;8100;50.994;4.538;2024-02-04T08:39:35;4.57;;;2.50;;
15990;SDS011;8100;50.994;4.538;2024-02-04T08:42:22;5.10;;;2.25;;
15990;SDS011;8100;50.994;4.538;2024-02-04T08:45:10;5.03;;;2.13;;
15990;SDS011;8100;50.994;4.538;2024-02-04T08:47:58;3.90;;;1.63;;
15990;SDS011;8100;50.994;4.538;2024-02-04T08:50:47;6.07;;;1.90;;
15990;SDS011;8100;50.994;4.538;2024-02-04T08:53:35;2.45;;;1.40;;
15990;SDS011;8100;50.994;4.538;2024-02-04T08:56:24;4.05;;;1.50;;
15990;SDS011;8100;50.994;4.538;2024-02-04T08:59:11;4.38;;;1.70;;
15990;SDS011;8100;50.994;4.538;2024-02-04T09:01:59;3.33;;;1.92;;
15990;SDS011;8100;50.994;4.538;2024-02-04T09:04:47;2.35;;;1.60;;
15990;SDS011;8100;50.994;4.538;2024-02-04T09:07:36;5.95;;;1.98;;
15990;SDS011;8100;50.994;4.538;2024-02-04T09:10:25;4.15;;;1.80;;
15990;SDS011;8100;50.994;4.538;2024-02-04T09:13:13;7.93;;;1.95;;
15990;SDS011;8100;50.994;4.538;2024-02-04T09:16:01;5.35;;;1.73;;
15990;SDS011;8100;50.994;4.538;2024-02-04T09:18:50;4.43;;;2.00;;
15990;SDS011;8100;50.994;4.538;2024-02-04T09:21:37;4.15;;;1.70;;
15990;SDS011;8100;50.994;4.538;2024-02-04T09:24:29;1.90;;;1.45;;
15990;SDS011;8100;50.994;4.538;2024-02-04T09:27:16;5.78;;;2.05;;
15990;SDS011;8100;50.994;4.538;2024-02-04T09:30:04;3.00;;;1.70;;
15990;SDS011;8100;50.994;4.538;2024-02-04T09:32:53;3.17;;;1.70;;
15990;SDS011;8100;50.994;4.538;2024-02-04T09:35:40;5.25;;;1.63;;
15990;SDS011;8100;50.994;4.538;2024-02-04T09:38:27;2.45;;;1.40;;
15990;SDS011;8100;50.994;4.538;2024-02-04T09:41:15;4.50;;;1.67;;
15990;SDS011;8100;50.994;4.538;2024-02-04T09:44:02;4.85;;;1.55;;
15990;SDS011;8100;50.994;4.538;2024-02-04T09:46:52;4.55;;;1.20;;
15990;SDS011;8100;50.994;4.538;2024-02-04T09:49:41;4.95;;;1.60;;
15990;SDS011;8100;50.994;4.538;2024-02-04T09:52:29;3.78;;;1.52;;
15990;SDS011;8100;50.994;4.538;2024-02-04T09:55:19;2.40;;;1.50;;
15990;SDS011;8100;50.994;4.538;2024-02-04T09:58:09;2.35;;;1.30;;
15990;SDS011;8100;50.994;4.538;2024-02-04T10:00:56;2.75;;;1.20;;
15990;SDS011;8100;50.994;4.538;2024-02-04T10:03:43;3.35;;;1.23;;
15990;SDS011;8100;50.994;4.538;2024-02-04T10:06:30;4.05;;;1.30;;
15990;SDS011;8100;50.994;4.538;2024-02-04T10:09:18;1.95;;;1.02;;
15990;SDS011;8100;50.994;4.538;2024-02-04T10:12:05;4.15;;;1.40;;
15990;SDS011;8100;50.994;4.538;2024-02-04T10:14:55;1.98;;;1.00;;
15990;SDS011;8100;50.994;4.538;2024-02-04T10:17:42;5.80;;;1.35;;
15990;SDS011;8100;50.994;4.538;2024-02-04T10:20:31;3.03;;;1.35;;
15990;SDS011;8100;50.994;4.538;2024-02-04T10:23:18;5.03;;;1.10;;
15990;SDS011;8100;50.994;4.538;2024-02-04T10:26:05;2.58;;;1.00;;
15990;SDS011;8100;50.994;4.538;2024-02-04T10:28:52;1.38;;;1.00;;
15990;SDS011;8100;50.994;4.538;2024-02-04T10:31:41;1.85;;;1.00;;
15990;SDS011;8100;50.994;4.538;2024-02-04T10:34:28;2.58;;;1.17;;
15990;SDS011;8100;50.994;4.538;2024-02-04T10:37:15;2.28;;;1.00;;
15990;SDS011;8100;50.994;4.538;2024-02-04T10:40:02;2.35;;;1.10;;
15990;SDS011;8100;50.994;4.538;2024-02-04T10:42:50;5.03;;;1.17;;
15990;SDS011;8100;50.994;4.538;2024-02-04T10:45:38;2.30;;;1.20;;
15990;SDS011;8100;50.994;4.538;2024-02-04T10:48:29;4.35;;;1.20;;
15990;SDS011;8100;50.994;4.538;2024-02-04T10:51:27;3.03;;;1.05;;
15990;SDS011;8100;50.994;4.538;2024-02-04T10:54:15;3.55;;;1.20;;
15990;SDS011;8100;50.994;4.538;2024-02-04T10:57:05;3.83;;;1.30;;
15990;SDS011;8100;50.994;4.538;2024-02-04T10:59:58;3.63;;;1.38;;
15990;SDS011;8100;50.994;4.538;2024-02-04T11:02:46;6.32;;;1.38;;
15990;SDS011;8100;50.994;4.538;2024-02-04T11:05:35;2.55;;;1.10;;
15990;SDS011;8100;50.994;4.538;2024-02-04T11:08:25;1.60;;;0.93;;
15990;SDS011;8100;50.994;4.538;2024-02-04T11:11:12;4.07;;;1.02;;
15990;SDS011;8100;50.994;4.538;2024-02-04T11:14:00;1.90;;;1.38;;
15990;SDS011;8100;50.994;4.538;2024-02-04T11:20:16;2.25;;;1.10;;
15990;SDS011;8100;50.994;4.538;2024-02-04T11:23:35;1.95;;;1.20;;
15990;SDS011;8100;50.994;4.538;2024-02-04T11:26:29;5.43;;;1.27;;
15990;SDS011;8100;50.994;4.538;2024-02-04T11:29:16;2.67;;;1.30;;
15990;SDS011;8100;50.994;4.538;2024-02-04T11:32:05;2.80;;;1.13;;
15990;SDS011;8100;50.994;4.538;2024-02-04T11:34:53;1.50;;;1.10;;
15990;SDS011;8100;50.994;4.538;2024-02-04T11:37:45;4.20;;;0.80;;
15990;SDS011;8100;50.994;4.538;2024-02-04T11:40:35;5.15;;;1.50;;
15990;SDS011;8100;50.994;4.538;2024-02-04T11:43:23;2.80;;;1.10;;
15990;SDS011;8100;50.994;4.538;2024-02-04T11:46:16;2.35;;;0.80;;
15990;SDS011;8100;50.994;4.538;2024-02-04T11:49:13;1.52;;;0.68;;
15990;SDS011;8100;50.994;4.538;2024-02-04T11:52:01;3.25;;;1.25;;
15990;SDS011;8100;50.994;4.538;2024-02-04T11:54:49;2.70;;;1.00;;
15990;SDS011;8100;50.994;4.538;2024-02-04T11:57:39;1.40;;;0.80;;
15990;SDS011;8100;50.994;4.538;2024-02-04T12:00:26;3.90;;;1.15;;
15990;SDS011;8100;50.994;4.538;2024-02-04T12:03:14;2.75;;;1.00;;
15990;SDS011;8100;50.994;4.538;2024-02-04T12:06:02;2.88;;;1.00;;
15990;SDS011;8100;50.994;4.538;2024-02-04T12:08:50;1.92;;;0.82;;
15990;SDS011;8100;50.994;4.538;2024-02-04T12:11:37;1.25;;;1.10;;
15990;SDS011;8100;50.994;4.538;2024-02-04T12:14:25;2.95;;;1.13;;
15990;SDS011;8100;50.994;4.538;2024-02-04T12:17:14;1.45;;;0.80;;
15990;SDS011;8100;50.994;4.538;2024-02-04T12:20:01;1.83;;;0.90;;
15990;SDS011;8100;50.994;4.538;2024-02-04T12:22:50;1.42;;;0.50;;
15990;SDS011;8100;50.994;4.538;2024-02-04T12:25:37;0.93;;;0.80;;
15990;SDS011;8100;50.994;4.538;2024-02-04T12:28:24;3.70;;;0.85;;
15990;SDS011;8100;50.994;4.538;2024-02-04T12:31:19;2.33;;;0.82;;
15990;SDS011;8100;50.994;4.538;2024-02-04T12:34:07;2.28;;;0.70;;
15990;SDS011;8100;50.994;4.538;2024-02-04T12:36:57;3.38;;;0.90;;
15990;SDS011;8100;50.994;4.538;2024-02-04T12:39:45;4.57;;;0.80;;
15990;SDS011;8100;50.994;4.538;2024-02-04T12:42:32;1.65;;;0.80;;
15990;SDS011;8100;50.994;4.538;2024-02-04T12:45:20;1.88;;;0.80;;
15990;SDS011;8100;50.994;4.538;2024-02-04T12:48:08;2.85;;;1.00;;
15990;SDS011;8100;50.994;4.538;2024-02-04T12:50:55;1.52;;;0.80;;
15990;SDS011;8100;50.994;4.538;2024-02-04T12:53:42;1.08;;;0.70;;
15990;SDS011;8100;50.994;4.538;2024-02-04T12:56:39;1.33;;;0.80;;
15990;SDS011;8100;50.994;4.538;2024-02-04T12:59:27;2.42;;;0.85;;
15990;SDS011;8100;50.994;4.538;2024-02-04T13:02:14;3.25;;;1.00;;
15990;SDS011;8100;50.994;4.538;2024-02-04T13:05:03;2.42;;;0.95;;
15990;SDS011;8100;50.994;4.538;2024-02-04T13:07:53;2.92;;;0.80;;
15990;SDS011;8100;50.994;4.538;2024-02-04T13:10:41;2.63;;;0.70;;
15990;SDS011;8100;50.994;4.538;2024-02-04T13:13:30;4.00;;;1.77;;
15990;SDS011;8100;50.994;4.538;2024-02-04T13:16:18;3.42;;;0.90;;
15990;SDS011;8100;50.994;4.538;2024-02-04T13:19:07;2.28;;;1.00;;
15990;SDS011;8100;50.994;4.538;2024-02-04T13:21:56;1.90;;;0.85;;
15990;SDS011;8100;50.994;4.538;2024-02-04T13:24:43;2.25;;;0.70;;
15990;SDS011;8100;50.994;4.538;2024-02-04T13:27:30;3.88;;;0.63;;
15990;SDS011;8100;50.994;4.538;2024-02-04T13:30:17;3.17;;;0.90;;
15990;SDS011;8100;50.994;4.538;2024-02-04T13:33:04;0.95;;;0.47;;
15990;SDS011;8100;50.994;4.538;2024-02-04T13:35:51;1.35;;;0.60;;
15990;SDS011;8100;50.994;4.538;2024-02-04T13:38:40;1.42;;;0.70;;
15990;SDS011;8100;50.994;4.538;2024-02-04T13:41:26;1.38;;;0.63;;
15990;SDS011;8100;50.994;4.538;2024-02-04T13:44:13;0.50;;;0.50;;
15990;SDS011;8100;50.994;4.538;2024-02-04T13:47:00;1.80;;;0.60;;
15990;SDS011;8100;50.994;4.538;2024-02-04T13:49:47;1.50;;;0.60;;
15990;SDS011;8100;50.994;4.538;2024-02-04T13:52:34;1.50;;;0.50;;
15990;SDS011;8100;50.994;4.538;2024-02-04T13:55:23;0.70;;;0.60;;
15990;SDS011;8100;50.994;4.538;2024-02-04T13:58:10;1.90;;;0.68;;
15990;SDS011;8100;50.994;4.538;2024-02-04T14:00:57;1.38;;;0.80;;
15990;SDS011;8100;50.994;4.538;2024-02-04T14:03:45;1.35;;;0.70;;
15990;SDS011;8100;50.994;4.538;2024-02-04T14:06:32;0.93;;;0.50;;
15990;SDS011;8100;50.994;4.538;2024-02-04T14:09:18;1.23;;;0.70;;
15990;SDS011;8100;50.994;4.538;2024-02-04T14:12:07;2.38;;;0.70;;
15990;SDS011;8100;50.994;4.538;2024-02-04T14:14:55;2.03;;;0.70;;
15990;SDS011;8100;50.994;4.538;2024-02-04T14:17:42;1.70;;;0.63;;
15990;SDS011;8100;50.994;4.538;2024-02-04T14:20:29;2.00;;;0.60;;
15990;SDS011;8100;50.994;4.538;2024-02-04T14:23:16;2.13;;;0.80;;
15990;SDS011;8100;50.994;4.538;2024-02-04T14:26:04;3.75;;;0.80;;
15990;SDS011;8100;50.994;4.538;2024-02-04T14:28:54;1.60;;;0.73;;
15990;SDS011;8100;50.994;4.538;2024-02-04T14:31:41;2.67;;;0.80;;
15990;SDS011;8100;50.994;4.538;2024-02-04T14:34:28;1.48;;;0.80;;
15990;SDS011;8100;50.994;4.538;2024-02-04T14:37:15;1.52;;;0.70;;
15990;SDS011;8100;50.994;4.538;2024-02-04T14:40:03;2.22;;;0.75;;
15990;SDS011;8100;50.994;4.538;2024-02-04T14:42:51;0.85;;;0.68;;
15990;SDS011;8100;50.994;4.538;2024-02-04T14:45:40;2.03;;;1.13;;
15990;SDS011;8100;50.994;4.538;2024-02-04T14:48:26;4.05;;;1.30;;
15990;SDS011;8100;50.994;4.538;2024-02-04T14:51:14;2.92;;;1.15;;
15990;SDS011;8100;50.994;4.538;2024-02-04T14:54:01;1.98;;;0.80;;
15990;SDS011;8100;50.994;4.538;2024-02-04T14:56:48;4.38;;;1.00;;
15990;SDS011;8100;50.994;4.538;2024-02-04T14:59:36;2.08;;;0.90;;
15990;SDS011;8100;50.994;4.538;2024-02-04T15:02:25;3.00;;;0.93;;
15990;SDS011;8100;50.994;4.538;2024-02-04T15:05:12;4.20;;;0.93;;
15990;SDS011;8100;50.994;4.538;2024-02-04T15:08:01;3.97;;;0.98;;
15990;SDS011;8100;50.994;4.538;2024-02-04T15:10:48;3.03;;;1.00;;
15990;SDS011;8100;50.994;4.538;2024-02-04T15:13:35;5.40;;;1.20;;
15990;SDS011;8100;50.994;4.538;2024-02-04T15:16:22;4.00;;;1.00;;
15990;SDS011;8100;50.994;4.538;2024-02-04T15:19:11;2.03;;;1.00;;
15990;SDS011;8100;50.994;4.538;2024-02-04T15:21:59;2.72;;;1.20;;
15990;SDS011;8100;50.994;4.538;2024-02-04T15:24:46;4.90;;;1.35;;
15990;SDS011;8100;50.994;4.538;2024-02-04T15:27:34;3.42;;;1.10;;
15990;SDS011;8100;50.994;4.538;2024-02-04T15:30:21;4.43;;;1.10;;
15990;SDS011;8100;50.994;4.538;2024-02-04T15:33:09;4.35;;;1.00;;
15990;SDS011;8100;50.994;4.538;2024-02-04T15:35:57;3.80;;;1.00;;
15990;SDS011;8100;50.994;4.538;2024-02-04T15:38:44;2.75;;;0.88;;
15990;SDS011;8100;50.994;4.538;2024-02-04T15:41:31;6.45;;;1.27;;
15990;SDS011;8100;50.994;4.538;2024-02-04T15:44:18;2.55;;;1.08;;
15990;SDS011;8100;50.994;4.538;2024-02-04T15:47:07;3.78;;;1.25;;
15990;SDS011;8100;50.994;4.538;2024-02-04T15:49:55;1.45;;;0.80;;
15990;SDS011;8100;50.994;4.538;2024-02-04T15:52:44;5.05;;;1.38;;
15990;SDS011;8100;50.994;4.538;2024-02-04T15:55:31;5.88;;;1.52;;
15990;SDS011;8100;50.994;4.538;2024-02-04T15:58:18;6.15;;;1.30;;
15990;SDS011;8100;50.994;4.538;2024-02-04T16:01:08;2.58;;;0.98;;
15990;SDS011;8100;50.994;4.538;2024-02-04T16:03:57;3.45;;;1.00;;
15990;SDS011;8100;50.994;4.538;2024-02-04T16:06:45;2.95;;;0.90;;
15990;SDS011;8100;50.994;4.538;2024-02-04T16:09:34;4.25;;;0.90;;
15990;SDS011;8100;50.994;4.538;2024-02-04T16:12:26;5.93;;;0.82;;
15990;SDS011;8100;50.994;4.538;2024-02-04T16:15:13;6.75;;;1.25;;
15990;SDS011;8100;50.994;4.538;2024-02-04T16:18:01;4.15;;;1.00;;
15990;SDS011;8100;50.994;4.538;2024-02-04T16:20:49;5.05;;;1.20;;
15990;SDS011;8100;50.994;4.538;2024-02-04T16:23:36;2.28;;;0.82;;
15990;SDS011;8100;50.994;4.538;2024-02-04T16:26:24;2.25;;;0.70;;
15990;SDS011;8100;50.994;4.538;2024-02-04T16:29:11;3.83;;;1.30;;
15990;SDS011;8100;50.994;4.538;2024-02-04T16:31:59;2.85;;;1.20;;
15990;SDS011;8100;50.994;4.538;2024-02-04T16:34:47;4.32;;;1.00;;
15990;SDS011;8100;50.994;4.538;2024-02-04T16:37:34;2.58;;;0.80;;
15990;SDS011;8100;50.994;4.538;2024-02-04T16:40:22;4.97;;;1.10;;
15990;SDS011;8100;50.994;4.538;2024-02-04T16:43:11;4.72;;;0.98;;
15990;SDS011;8100;50.994;4.538;2024-02-04T16:45:59;1.88;;;0.88;;
15990;SDS011;8100;50.994;4.538;2024-02-04T16:48:46;2.92;;;1.13;;
15990;SDS011;8100;50.994;4.538;2024-02-04T16:51:36;4.28;;;0.93;;
15990;SDS011;8100;50.994;4.538;2024-02-04T16:54:24;5.32;;;1.10;;
15990;SDS011;8100;50.994;4.538;2024-02-04T16:57:14;8.52;;;1.13;;
15990;SDS011;8100;50.994;4.538;2024-02-04T17:00:02;5.97;;;1.02;;
15990;SDS011;8100;50.994;4.538;2024-02-04T17:02:50;3.42;;;1.17;;
15990;SDS011;8100;50.994;4.538;2024-02-04T17:05:39;7.47;;;1.35;;
15990;SDS011;8100;50.994;4.538;2024-02-04T17:08:26;5.25;;;1.13;;
15990;SDS011;8100;50.994;4.538;2024-02-04T17:11:14;3.35;;;1.17;;